Time;durP1;ratioP1;P1;durP2;ratioP2;P2;SDS_P1;SDS_P2;PMS_P1;PMS_P2;Temp;Humidity;BMP_temperature;BMP_pressure;BME280_temperature;BME280_humidity;BME280_pressure;Samples;Min_cycle;Max_cycle;Signal;HPM_P1;HPM_P2
2022/01/22 00:00:34;;;;;;;3.47;2.10;;;8.40;78.90;;;;;;5013911;28;20034;-83
2022/01/22 00:03:00;;;;;;;3.28;2.20;;;8.40;78.90;;;;;;5029977;28;20179;-84
2022/01/22 00:05:25;;;;;;;3.55;2.00;;;8.50;78.90;;;;;;5030459;28;20033;-83
2022/01/22 00:07:51;;;;;;;5.32;2.20;;;8.40;78.90;;;;;;5027099;28;20061;-83
2022/01/22 00:10:19;;;;;;;3.95;2.10;;;8.40;78.90;;;;;;5013348;28;20052;-83
2022/01/22 00:15:18;;;;;;;3.95;2.00;;;8.40;78.90;;;;;;5030883;28;20029;-82
2022/01/22 00:17:44;;;;;;;3.22;1.90;;;8.40;78.90;;;;;;5029689;28;20021;-82
2022/01/22 00:20:12;;;;;;;3.75;2.10;;;8.40;78.90;;;;;;5029793;28;20030;-82
2022/01/22 00:22:39;;;;;;;3.47;1.90;;;8.40;78.90;;;;;;5030092;28;20732;-82
2022/01/22 00:25:09;;;;;;;3.75;2.08;;;8.40;78.90;;;;;;5013855;28;20038;-83
2022/01/22 00:27:37;;;;;;;3.78;2.10;;;8.50;79.00;;;;;;5009632;28;20033;-82
2022/01/22 00:30:08;;;;;;;2.17;1.80;;;8.40;79.50;;;;;;5028194;28;20112;-81
2022/01/22 00:32:35;;;;;;;3.65;2.15;;;8.40;79.00;;;;;;5028766;28;20041;-83
2022/01/22 00:35:01;;;;;;;3.80;2.17;;;8.40;78.90;;;;;;5013321;28;20124;-83
2022/01/22 00:37:27;;;;;;;4.45;2.00;;;8.40;78.90;;;;;;5021908;28;20479;-83
2022/01/22 00:39:52;;;;;;;3.50;2.08;;;8.40;78.90;;;;;;5028952;28;20458;-84
2022/01/22 00:42:20;;;;;;;3.72;2.00;;;8.50;79.00;;;;;;5029826;28;20041;-83
2022/01/22 00:44:49;;;;;;;2.75;1.77;;;8.40;78.90;;;;;;5032644;28;20466;-81
2022/01/22 00:47:20;;;;;;;4.18;1.92;;;8.40;78.90;;;;;;5014596;28;20108;-83
2022/01/22 00:49:47;;;;;;;2.78;1.92;;;8.40;78.90;;;;;;5038267;28;20080;-83
2022/01/22 00:52:13;;;;;;;3.13;1.90;;;8.40;78.90;;;;;;5031827;28;20028;-82
2022/01/22 00:54:38;;;;;;;2.67;1.77;;;8.50;78.90;;;;;;5034183;28;20067;-82
2022/01/22 00:57:05;;;;;;;4.15;2.05;;;8.40;78.90;;;;;;5033842;28;20052;-82
2022/01/22 00:59:31;;;;;;;2.88;1.80;;;8.40;78.90;;;;;;5033613;28;20041;-82
2022/01/22 01:01:57;;;;;;;3.60;2.20;;;8.50;78.90;;;;;;5033327;28;20411;-82
2022/01/22 01:04:23;;;;;;;3.65;2.00;;;8.40;78.90;;;;;;5033869;28;20041;-82
2022/01/22 01:06:49;;;;;;;2.22;1.85;;;8.40;78.90;;;;;;5032967;28;20025;-83
2022/01/22 01:09:17;;;;;;;3.45;1.95;;;8.50;79.00;;;;;;5050228;28;20018;-82
2022/01/22 01:11:48;;;;;;;4.43;1.90;;;8.40;78.90;;;;;;5015910;28;20046;-82
2022/01/22 01:14:25;;;;;;;2.53;1.75;;;8.40;78.90;;;;;;5016793;28;20120;-82
2022/01/22 01:33:37;;;;;;;4.32;2.30;;;8.50;79.00;;;;;;5033327;28;20435;-82
2022/01/22 01:35:51;;;;;;;3.13;2.05;;;8.40;79.00;;;;;;5030960;28;20038;-82
2022/01/22 01:38:20;;;;;;;3.83;1.85;;;8.40;79.00;;;;;;5016319;28;20030;-82
2022/01/22 01:40:55;;;;;;;2.83;1.90;;;8.40;79.00;;;;;;5012831;28;20048;-82
2022/01/22 01:43:27;;;;;;;2.55;1.98;;;8.40;79.00;;;;;;5044853;28;20040;-82
2022/01/22 01:46:12;;;;;;;2.58;2.10;;;8.40;79.00;;;;;;5033322;28;20042;-82
2022/01/22 01:48:42;;;;;;;4.50;2.10;;;8.40;79.00;;;;;;5034716;28;20038;-82
2022/01/22 01:51:08;;;;;;;2.60;2.05;;;8.40;79.60;;;;;;5035645;28;20037;-83
2022/01/22 01:59:00;;;;;;;4.70;2.13;;;8.50;79.00;;;;;;5047209;28;20042;-82
2022/01/22 02:01:26;;;;;;;3.03;2.10;;;8.40;79.30;;;;;;5015830;28;20056;-82
2022/01/22 02:03:52;;;;;;;4.03;2.20;;;8.40;79.00;;;;;;5032205;28;20045;-82
2022/01/22 02:06:20;;;;;;;3.72;2.10;;;8.40;79.00;;;;;;5030189;28;20130;-83
2022/01/22 02:08:46;;;;;;;2.42;1.90;;;8.40;79.00;;;;;;5013815;28;20025;-82
2022/01/22 02:11:21;;;;;;;3.80;2.10;;;8.40;79.00;;;;;;5032441;28;20079;-83
2022/01/22 02:25:24;;;;;;;2.67;2.00;;;8.40;79.00;;;;;;5032491;28;20072;-83
2022/01/22 02:27:50;;;;;;;3.75;2.35;;;8.40;79.00;;;;;;5015242;28;20025;-81
2022/01/22 02:30:25;;;;;;;3.90;2.15;;;8.40;79.10;;;;;;5031672;28;20033;-83
2022/01/22 02:33:37;;;;;;;3.75;2.08;;;8.40;79.10;;;;;;5005118;28;20102;-82
2022/01/22 02:36:15;;;;;;;2.83;2.08;;;8.40;79.10;;;;;;5048319;28;20026;-82
2022/01/22 02:41:27;;;;;;;2.60;2.05;;;8.40;79.10;;;;;;5050546;28;20029;-83
2022/01/22 02:43:55;;;;;;;3.05;2.40;;;8.40;79.10;;;;;;5015680;28;20128;-82
2022/01/22 02:46:27;;;;;;;3.67;2.30;;;8.40;79.10;;;;;;5031932;28;20466;-82
2022/01/22 02:48:55;;;;;;;3.80;2.33;;;8.40;79.10;;;;;;5031853;28;20025;-82
2022/01/22 02:51:26;;;;;;;3.28;2.00;;;8.40;79.10;;;;;;5031888;28;20022;-82
2022/01/22 02:53:56;;;;;;;2.92;2.28;;;8.40;79.10;;;;;;5030985;28;20040;-82
2022/01/22 02:56:24;;;;;;;3.15;2.35;;;8.40;79.10;;;;;;5031261;28;20091;-82
2022/01/22 02:58:52;;;;;;;2.92;2.22;;;8.40;79.10;;;;;;5030778;28;20402;-82
2022/01/22 03:01:20;;;;;;;3.88;2.38;;;8.50;79.10;;;;;;5031128;28;20160;-83
2022/01/22 03:03:46;;;;;;;3.50;2.40;;;8.40;79.10;;;;;;5031073;28;20041;-83
2022/01/22 03:06:13;;;;;;;3.65;2.70;;;8.40;79.10;;;;;;5030161;28;20128;-83
2022/01/22 03:08:41;;;;;;;4.30;2.63;;;8.40;79.10;;;;;;5027634;28;20040;-82
2022/01/22 03:11:17;;;;;;;3.20;2.30;;;8.40;79.10;;;;;;5000555;28;20498;-83
2022/01/22 03:16:29;;;;;;;3.38;2.60;;;8.50;79.10;;;;;;5031601;28;20040;-83
2022/01/22 03:19:29;;;;;;;3.42;2.22;;;8.50;79.10;;;;;;5031023;28;20044;-83
2022/01/22 03:21:57;;;;;;;4.32;2.63;;;8.50;79.10;;;;;;5045368;28;20036;-82
2022/01/22 03:27:29;;;;;;;3.75;2.20;;;8.40;79.10;;;;;;5047918;28;20034;-82
2022/01/22 03:29:56;;;;;;;4.15;2.35;;;8.50;79.80;;;;;;5030644;28;20521;-82
2022/01/22 03:32:26;;;;;;;3.72;2.38;;;8.40;79.10;;;;;;5030878;28;20035;-82
2022/01/22 03:35:07;;;;;;;3.45;2.67;;;8.40;79.10;;;;;;5014576;28;20022;-82
2022/01/22 03:37:33;;;;;;;3.30;2.30;;;8.50;79.20;;;;;;5031362;28;20025;-80
2022/01/22 03:39:59;;;;;;;3.13;2.42;;;8.40;79.10;;;;;;5030736;28;20080;-83
2022/01/22 03:42:25;;;;;;;3.80;2.80;;;8.50;79.20;;;;;;5030973;28;20505;-83
2022/01/22 03:44:52;;;;;;;3.08;2.40;;;8.40;79.10;;;;;;5029799;28;20028;-82
2022/01/22 03:47:18;;;;;;;4.55;2.60;;;8.50;79.20;;;;;;5030970;28;20125;-82
2022/01/22 03:49:44;;;;;;;4.72;2.85;;;8.50;79.20;;;;;;5029969;28;20053;-83
2022/01/22 03:52:13;;;;;;;3.38;2.53;;;8.50;79.20;;;;;;5031010;28;20040;-82
2022/01/22 03:54:39;;;;;;;3.95;2.65;;;8.50;79.20;;;;;;5030191;28;20033;-83
2022/01/22 03:57:06;;;;;;;2.75;2.40;;;8.50;79.10;;;;;;5030019;28;20025;-82
2022/01/22 03:59:40;;;;;;;;;;;8.50;79.10;;;;;;5030363;28;20052;-82
2022/01/22 04:04:52;;;;;;;4.07;2.40;;;8.50;79.00;;;;;;5030900;28;20376;-82
2022/01/22 04:10:04;;;;;;;4.68;2.80;;;8.40;79.20;;;;;;5030182;28;20040;-82
2022/01/22 04:12:48;;;;;;;3.90;2.58;;;8.40;79.10;;;;;;5030526;28;20049;-82
2022/01/22 04:15:17;;;;;;;6.28;2.95;;;8.40;79.20;;;;;;5030717;28;20046;-82
2022/01/22 04:26:07;;;;;;;3.78;2.60;;;8.50;79.20;;;;;;5033727;28;20497;-82
2022/01/22 04:28:33;;;;;;;4.60;2.58;;;8.50;79.20;;;;;;5050576;28;20048;-83
2022/01/22 04:30:58;;;;;;;3.45;2.65;;;8.50;79.20;;;;;;5034398;28;20037;-82
2022/01/22 04:33:24;;;;;;;3.95;3.00;;;8.40;79.10;;;;;;5034681;28;20051;-83
2022/01/22 04:35:50;;;;;;;4.22;2.67;;;8.50;79.20;;;;;;5034214;28;20080;-82
2022/01/22 04:38:16;;;;;;;3.22;2.63;;;8.50;79.20;;;;;;5031329;28;20047;-82
2022/01/22 04:40:41;;;;;;;3.40;2.58;;;8.50;79.20;;;;;;5056189;28;20463;-83
2022/01/22 04:43:08;;;;;;;4.32;2.88;;;8.50;79.20;;;;;;5033727;28;20038;-83
2022/01/22 04:49:09;;;;;;;3.40;2.42;;;8.50;79.80;;;;;;5035304;28;20035;-83
2022/01/22 04:56:42;;;;;;;4.82;2.80;;;8.50;79.10;;;;;;5033640;28;20355;-83
2022/01/22 04:59:08;;;;;;;3.67;2.63;;;8.50;79.10;;;;;;5045660;28;20381;-83
2022/01/22 05:01:34;;;;;;;3.50;2.47;;;8.50;79.20;;;;;;5034207;28;20025;-83
2022/01/22 05:04:15;;;;;;;5.00;2.90;;;8.50;79.20;;;;;;5034211;28;20508;-83
2022/01/22 05:07:01;;;;;;;3.75;2.55;;;8.50;79.20;;;;;;5046227;28;20064;-82
2022/01/22 05:09:42;;;;;;;3.85;2.80;;;8.50;79.10;;;;;;5034128;28;20159;-83
2022/01/22 05:12:10;;;;;;;3.45;2.65;;;8.50;79.10;;;;;;5033486;28;20329;-82
2022/01/22 05:14:39;;;;;;;4.82;2.92;;;8.50;79.10;;;;;;5017629;28;20034;-82
2022/01/22 05:17:07;;;;;;;3.83;2.75;;;8.50;79.20;;;;;;5032867;28;20117;-83
2022/01/22 05:19:46;;;;;;;3.63;2.50;;;8.50;79.20;;;;;;5033372;28;20458;-83
2022/01/22 05:22:39;;;;;;;3.45;2.38;;;8.50;79.20;;;;;;5002357;28;20037;-83
2022/01/22 05:25:08;;;;;;;3.50;2.35;;;8.60;79.20;;;;;;5032487;28;20119;-84
2022/01/22 05:39:00;;;;;;;3.55;2.60;;;8.50;79.10;;;;;;5034732;28;20033;-83
2022/01/22 05:41:25;;;;;;;4.10;2.50;;;8.50;79.20;;;;;;5032987;28;20040;-83
2022/01/22 05:43:51;;;;;;;4.05;2.47;;;8.50;79.20;;;;;;5012668;28;20030;-83
2022/01/22 05:46:17;;;;;;;4.95;2.60;;;8.50;79.20;;;;;;5003852;28;20042;-82
2022/01/22 05:48:43;;;;;;;3.50;2.33;;;8.60;79.20;;;;;;5013449;28;20112;-83
2022/01/22 05:51:09;;;;;;;4.18;2.53;;;8.60;79.20;;;;;;4999694;28;20437;-83
2022/01/22 05:53:49;;;;;;;2.65;2.28;;;8.60;79.20;;;;;;5042473;28;20040;-83
2022/01/22 06:01:45;;;;;;;3.65;2.58;;;8.60;79.20;;;;;;5003714;28;20057;-83
2022/01/22 06:04:16;;;;;;;3.17;2.17;;;8.60;79.20;;;;;;5001256;28;20033;-82
2022/01/22 06:06:43;;;;;;;3.10;2.22;;;8.60;79.20;;;;;;5031456;28;20440;-83
2022/01/22 06:09:10;;;;;;;3.58;2.50;;;8.60;79.20;;;;;;5031964;28;20037;-83
2022/01/22 06:11:57;;;;;;;4.40;2.47;;;8.60;79.20;;;;;;5015897;28;20490;-82
2022/01/22 06:14:35;;;;;;;2.85;2.10;;;8.60;79.20;;;;;;5033037;28;20155;-82
2022/01/22 06:17:01;;;;;;;3.47;2.20;;;8.60;79.20;;;;;;5032165;28;20421;-82
2022/01/22 06:19:31;;;;;;;3.30;2.20;;;8.60;79.20;;;;;;5032767;28;20034;-83
2022/01/22 06:21:58;;;;;;;4.10;2.60;;;8.60;79.30;;;;;;5015402;28;20041;-82
2022/01/22 06:24:24;;;;;;;3.35;2.38;;;8.60;79.20;;;;;;5008962;28;20100;-82
2022/01/22 06:26:51;;;;;;;3.55;2.38;;;8.60;79.20;;;;;;5038822;28;20447;-83
2022/01/22 06:29:17;;;;;;;2.42;2.22;;;8.60;79.20;;;;;;5037308;28;20030;-82
2022/01/22 06:31:43;;;;;;;3.20;2.30;;;8.60;79.20;;;;;;5016868;28;20466;-83
2022/01/22 06:34:09;;;;;;;3.17;2.38;;;8.60;79.20;;;;;;5028767;28;20048;-83
2022/01/22 06:36:37;;;;;;;3.60;2.42;;;8.60;79.20;;;;;;5029998;28;20037;-83
2022/01/22 06:39:18;;;;;;;3.75;2.55;;;8.60;79.20;;;;;;5014854;28;20052;-82
2022/01/22 06:42:08;;;;;;;3.40;2.28;;;8.60;79.20;;;;;;4990067;28;20042;-83
2022/01/22 06:44:52;;;;;;;3.58;2.65;;;8.60;79.20;;;;;;5043751;28;20048;-82
2022/01/22 06:47:37;;;;;;;3.10;2.40;;;8.60;79.10;;;;;;5032309;28;20524;-82
2022/01/22 06:50:11;;;;;;;2.63;2.15;;;8.60;79.20;;;;;;5016112;28;20037;-82
2022/01/22 06:55:55;;;;;;;3.17;2.40;;;8.60;79.20;;;;;;5048521;28;20033;-82
2022/01/22 06:58:22;;;;;;;4.35;2.50;;;8.60;79.30;;;;;;5028040;28;20524;-83
2022/01/22 07:00:59;;;;;;;5.57;2.78;;;8.60;79.20;;;;;;5016009;28;20041;-82
2022/01/22 07:03:34;;;;;;;3.60;2.50;;;8.60;79.20;;;;;;5031361;28;20445;-82
2022/01/22 07:06:21;;;;;;;3.13;2.53;;;8.60;79.20;;;;;;5029982;28;20048;-81
2022/01/22 07:08:47;;;;;;;4.07;2.63;;;8.60;79.20;;;;;;5042660;28;20051;-81
2022/01/22 07:11:17;;;;;;;3.53;2.50;;;8.60;79.30;;;;;;5014443;28;20054;-82
2022/01/22 07:13:45;;;;;;;3.15;2.35;;;8.60;79.20;;;;;;5013028;28;20137;-81
2022/01/22 07:16:12;;;;;;;3.47;2.60;;;8.60;79.30;;;;;;5031150;28;20461;-81
2022/01/22 07:18:38;;;;;;;4.43;2.95;;;8.60;79.20;;;;;;5030670;28;20029;-83
2022/01/22 07:21:20;;;;;;;4.03;2.78;;;8.70;79.30;;;;;;5030864;28;20026;-82
2022/01/22 07:26:21;;;;;;;4.75;2.70;;;8.70;79.20;;;;;;5030215;28;20041;-84
2022/01/22 07:29:05;;;;;;;4.43;2.70;;;8.70;79.20;;;;;;5032040;28;20032;-84
2022/01/22 07:31:31;;;;;;;4.25;2.65;;;8.70;79.20;;;;;;5026892;28;20406;-80
2022/01/22 07:34:01;;;;;;;4.32;3.10;;;8.70;79.20;;;;;;5013744;28;20080;-80
2022/01/22 07:36:27;;;;;;;4.15;2.60;;;8.70;79.30;;;;;;5011592;28;20117;-80
2022/01/22 07:38:55;;;;;;;3.78;2.80;;;8.70;79.30;;;;;;5030753;28;20512;-79
2022/01/22 07:41:21;;;;;;;4.03;2.60;;;8.70;79.30;;;;;;5026721;28;20026;-81
2022/01/22 07:44:06;;;;;;;3.30;2.60;;;8.70;79.30;;;;;;5019786;28;20068;-80
2022/01/22 07:46:46;;;;;;;3.55;2.53;;;8.70;79.20;;;;;;5030557;28;20033;-80
2022/01/22 07:49:20;;;;;;;3.47;2.50;;;8.70;79.20;;;;;;5031325;28;20384;-80
2022/01/22 07:51:50;;;;;;;4.18;2.60;;;8.70;79.20;;;;;;5047378;28;20033;-80
2022/01/22 07:54:16;;;;;;;3.33;2.50;;;8.70;79.20;;;;;;5029370;28;20042;-82
2022/01/22 07:56:42;;;;;;;3.38;2.60;;;8.70;79.30;;;;;;5016436;28;20026;-82
2022/01/22 07:59:10;;;;;;;3.95;2.55;;;8.70;79.20;;;;;;5004229;28;20075;-84
2022/01/22 08:01:41;;;;;;;3.83;2.70;;;8.70;79.20;;;;;;5017799;28;20120;-82
2022/01/22 08:04:25;;;;;;;4.53;2.50;;;8.70;79.20;;;;;;5021912;28;20042;-80
2022/01/22 08:06:54;;;;;;;3.25;2.40;;;8.70;79.20;;;;;;5034955;28;20033;-79
2022/01/22 08:09:39;;;;;;;3.45;2.60;;;8.70;79.20;;;;;;5034705;28;20106;-80
2022/01/22 08:12:19;;;;;;;3.03;2.33;;;8.70;79.20;;;;;;5034120;28;20489;-80
2022/01/22 08:14:46;;;;;;;3.45;2.42;;;8.70;79.20;;;;;;5040793;28;20060;-80
2022/01/22 08:17:12;;;;;;;4.00;2.55;;;8.80;79.30;;;;;;5046073;28;20026;-82
2022/01/22 08:19:39;;;;;;;3.33;2.42;;;8.70;79.20;;;;;;5048914;28;20119;-79
2022/01/22 08:22:25;;;;;;;3.20;2.13;;;8.80;79.30;;;;;;5033034;28;20033;-80
2022/01/22 08:25:13;;;;;;;3.70;2.58;;;8.80;79.20;;;;;;5027805;28;20042;-81
2022/01/22 08:28:53;;;;;;;3.65;2.53;;;8.80;79.20;;;;;;5031203;28;20117;-82
2022/01/22 08:30:35;;;;;;;3.85;2.33;;;8.80;79.20;;;;;;5031067;28;20050;-82
2022/01/22 08:35:52;;;;;;;3.65;2.40;;;8.80;79.30;;;;;;5034707;28;20037;-81
2022/01/22 08:38:18;;;;;;;4.03;2.47;;;8.80;79.20;;;;;;5033881;28;20033;-80
2022/01/22 08:40:44;;;;;;;3.78;2.50;;;8.80;79.20;;;;;;5033694;28;20546;-81
2022/01/22 08:43:10;;;;;;;4.53;2.30;;;8.80;79.20;;;;;;5047715;28;20034;-82
2022/01/22 08:45:36;;;;;;;3.83;2.20;;;8.80;79.20;;;;;;5000017;28;20030;-84
2022/01/22 08:48:04;;;;;;;3.97;2.20;;;8.80;79.20;;;;;;5013774;28;20564;-82
2022/01/22 08:50:31;;;;;;;3.03;2.35;;;8.80;79.20;;;;;;5026425;28;20021;-80
2022/01/22 08:52:58;;;;;;;3.08;2.10;;;8.80;79.20;;;;;;5016756;28;20186;-81
2022/01/22 08:55:24;;;;;;;3.97;2.28;;;8.80;79.20;;;;;;5016868;28;20112;-82
2022/01/22 08:57:51;;;;;;;3.45;2.47;;;8.80;79.20;;;;;;5033480;28;20021;-81
2022/01/22 09:00:35;;;;;;;3.35;2.25;;;8.90;79.20;;;;;;5045628;28;20025;-82
2022/01/22 09:03:07;;;;;;;2.42;1.90;;;8.90;79.20;;;;;;5016096;28;20038;-81
2022/01/22 09:05:55;;;;;;;2.90;2.05;;;8.90;79.20;;;;;;5031741;28;20040;-80
2022/01/22 09:08:27;;;;;;;4.35;2.22;;;8.90;79.20;;;;;;5041734;28;20053;-86
2022/01/22 09:11:13;;;;;;;2.83;2.00;;;8.90;79.20;;;;;;5032341;28;20316;-85
2022/01/22 09:13:54;;;;;;;3.38;2.22;;;8.90;79.20;;;;;;5033331;28;20029;-86
2022/01/22 09:16:23;;;;;;;2.85;2.10;;;8.90;79.20;;;;;;5033214;28;20021;-84
2022/01/22 09:18:51;;;;;;;2.83;1.90;;;8.90;79.80;;;;;;5019060;28;20033;-84
2022/01/22 09:21:16;;;;;;;2.63;2.03;;;8.90;79.20;;;;;;5034961;28;20025;-85
2022/01/22 09:23:42;;;;;;;2.63;2.10;;;8.90;79.20;;;;;;5018551;28;20034;-85
2022/01/22 09:26:11;;;;;;;3.72;2.20;;;8.90;79.20;;;;;;5038848;28;20466;-86
2022/01/22 09:28:38;;;;;;;3.58;2.30;;;8.90;79.20;;;;;;5012594;28;20482;-85
2022/01/22 09:31:04;;;;;;;3.00;2.22;;;9.00;79.20;;;;;;5027119;28;20054;-86
2022/01/22 09:33:31;;;;;;;2.15;1.75;;;8.90;79.10;;;;;;5031476;28;20034;-87
2022/01/22 09:36:27;;;;;;;3.45;2.17;;;9.00;79.20;;;;;;5009555;28;20441;-84
2022/01/22 09:39:13;;;;;;;2.80;1.95;;;9.00;79.20;;;;;;5002542;28;20029;-85
2022/01/22 09:42:04;;;;;;;2.95;2.10;;;9.00;79.10;;;;;;5019324;28;20043;-82
2022/01/22 09:44:46;;;;;;;2.65;1.90;;;9.00;79.10;;;;;;5016382;28;20104;-82
2022/01/22 09:47:54;;;;;;;2.75;2.05;;;8.90;79.10;;;;;;5021085;28;20037;-86
2022/01/22 09:50:33;;;;;;;2.50;1.70;;;9.00;79.10;;;;;;5048243;28;20033;-85
2022/01/22 09:53:19;;;;;;;3.55;2.17;;;9.00;79.20;;;;;;5031604;28;20067;-86
2022/01/22 09:56:03;;;;;;;2.88;1.83;;;9.00;79.20;;;;;;5018653;28;20034;-83
2022/01/22 09:58:50;;;;;;;2.50;1.80;;;9.00;79.10;;;;;;5019794;28;20026;-83
2022/01/22 10:01:39;;;;;;;3.47;2.10;;;9.00;79.20;;;;;;5032538;28;20072;-84
2022/01/22 10:04:34;;;;;;;2.67;1.90;;;9.00;79.10;;;;;;5032325;28;20387;-84
2022/01/22 10:07:22;;;;;;;2.28;1.92;;;9.00;79.30;;;;;;5032219;28;20036;-85
2022/01/22 10:10:05;;;;;;;3.50;2.08;;;9.00;79.20;;;;;;5014807;28;20025;-84
2022/01/22 10:12:54;;;;;;;2.83;1.80;;;9.00;79.20;;;;;;5003705;28;20037;-84
2022/01/22 10:15:35;;;;;;;3.05;1.92;;;9.00;79.20;;;;;;5027233;28;20046;-84
2022/01/22 10:18:07;;;;;;;3.20;1.80;;;9.10;79.20;;;;;;5028877;28;20489;-87
2022/01/22 10:20:39;;;;;;;3.25;2.10;;;9.10;79.30;;;;;;5043309;28;20076;-85
2022/01/22 10:23:09;;;;;;;2.00;1.70;;;9.10;79.30;;;;;;5031582;28;20033;-89
2022/01/22 10:25:41;;;;;;;2.92;2.05;;;9.10;79.20;;;;;;5030913;28;20056;-84
2022/01/22 10:28:12;;;;;;;3.80;2.08;;;9.10;79.20;;;;;;5028826;28;20057;-84
2022/01/22 10:30:42;;;;;;;2.58;2.08;;;9.10;79.20;;;;;;5018394;28;20061;-84
2022/01/22 10:33:31;;;;;;;2.30;1.80;;;9.10;79.20;;;;;;5003229;28;20025;-83
2022/01/22 10:36:23;;;;;;;2.42;2.00;;;9.10;79.20;;;;;;5013639;28;20040;-86
2022/01/22 10:39:24;;;;;;;3.30;1.95;;;9.10;79.10;;;;;;5045594;28;20497;-84
2022/01/22 10:41:50;;;;;;;2.35;1.80;;;9.10;79.20;;;;;;5014300;28;20481;-87
2022/01/22 10:44:21;;;;;;;2.47;1.70;;;9.10;79.20;;;;;;5013202;28;20046;-81
2022/01/22 10:47:02;;;;;;;2.63;2.08;;;9.20;79.20;;;;;;5014537;28;20035;-82
2022/01/22 10:49:28;;;;;;;4.00;2.30;;;9.20;79.20;;;;;;5013256;28;20041;-81
2022/01/22 10:52:00;;;;;;;3.28;1.80;;;9.20;79.20;;;;;;5014284;28;20029;-82
2022/01/22 10:54:37;;;;;;;3.15;1.95;;;9.20;79.20;;;;;;5030685;28;20025;-83
2022/01/22 10:57:24;;;;;;;2.88;1.80;;;9.20;79.30;;;;;;5029427;28;20092;-82
2022/01/22 10:59:58;;;;;;;3.30;2.03;;;9.20;79.30;;;;;;5014046;28;20030;-82
2022/01/22 11:02:36;;;;;;;3.28;2.10;;;9.20;79.20;;;;;;5030731;28;20029;-83
2022/01/22 11:05:03;;;;;;;2.33;2.03;;;9.20;79.20;;;;;;5047299;28;20029;-82
2022/01/22 11:07:30;;;;;;;3.03;1.98;;;9.20;79.10;;;;;;5031095;28;20050;-82
2022/01/22 11:09:56;;;;;;;3.35;2.22;;;9.20;79.20;;;;;;5030954;28;20034;-82
2022/01/22 11:12:21;;;;;;;3.60;2.00;;;9.30;79.20;;;;;;5030511;28;20473;-84
2022/01/22 11:14:47;;;;;;;2.00;1.80;;;9.30;79.20;;;;;;5014947;28;20025;-83
2022/01/22 11:17:14;;;;;;;2.70;2.00;;;9.30;79.20;;;;;;5031576;28;20059;-82
2022/01/22 11:19:45;;;;;;;3.72;2.28;;;9.30;79.20;;;;;;5031706;28;20029;-83
2022/01/22 11:22:13;;;;;;;3.58;2.08;;;9.30;79.10;;;;;;5014100;28;20386;-83
2022/01/22 11:24:50;;;;;;;3.17;2.10;;;9.30;79.10;;;;;;5030646;28;20112;-83
2022/01/22 11:27:19;;;;;;;2.55;1.83;;;9.30;79.80;;;;;;5030274;28;20117;-84
2022/01/22 11:30:18;;;;;;;2.22;1.73;;;9.30;79.10;;;;;;5028157;28;20026;-84
2022/01/22 11:33:02;;;;;;;2.67;1.80;;;9.30;79.20;;;;;;5030874;28;20095;-83
2022/01/22 11:35:52;;;;;;;2.65;1.80;;;9.30;79.00;;;;;;5047997;28;20034;-82
2022/01/22 11:38:38;;;;;;;3.38;2.15;;;9.30;79.20;;;;;;5014576;28;20486;-86
2022/01/22 11:41:13;;;;;;;2.08;1.83;;;9.30;79.20;;;;;;5014076;28;20541;-82
2022/01/22 11:44:07;;;;;;;2.63;2.10;;;9.40;79.10;;;;;;5030934;28;20056;-83
2022/01/22 11:46:51;;;;;;;2.00;1.80;;;9.40;79.20;;;;;;5014812;28;20030;-83
2022/01/22 11:49:28;;;;;;;3.23;2.40;;;9.40;79.20;;;;;;5024415;28;20034;-84
2022/01/22 11:52:30;;;;;;;3.35;2.25;;;9.40;79.10;;;;;;5013852;28;20060;-81
2022/01/22 11:55:08;;;;;;;3.42;2.05;;;9.40;79.10;;;;;;5002317;28;20163;-82
2022/01/22 11:57:34;;;;;;;2.13;1.90;;;9.40;79.10;;;;;;5030884;28;20466;-82
2022/01/22 12:00:24;;;;;;;2.72;2.00;;;9.40;79.10;;;;;;5030486;28;20105;-82
2022/01/22 12:03:08;;;;;;;2.38;1.95;;;9.40;79.30;;;;;;5026554;28;20029;-82
2022/01/22 12:05:54;;;;;;;2.90;2.15;;;9.40;79.20;;;;;;5050220;28;20049;-83
2022/01/22 12:08:21;;;;;;;2.35;2.10;;;9.40;79.20;;;;;;5044395;28;20038;-83
2022/01/22 12:23:18;;;;;;;3.17;2.03;;;9.50;79.20;;;;;;5010571;28;20052;-86
2022/01/22 12:25:44;;;;;;;3.53;2.22;;;9.50;79.10;;;;;;5015246;28;20032;-85
2022/01/22 12:28:30;;;;;;;3.08;2.20;;;9.50;79.20;;;;;;5033599;28;20466;-83
2022/01/22 12:31:20;;;;;;;3.28;2.33;;;9.50;79.20;;;;;;5031866;28;20036;-78
2022/01/22 12:34:01;;;;;;;2.90;1.98;;;9.50;79.20;;;;;;5035556;28;20373;-81
2022/01/22 12:36:40;;;;;;;3.80;2.30;;;9.50;79.10;;;;;;5043711;28;20034;-89
2022/01/22 12:39:53;;;;;;;;;;;;;;;;;;;;;
2022/01/22 12:42:55;;;;;;;3.03;2.22;;;9.50;79.30;;;;;;5017233;28;20060;-85
2022/01/22 12:45:33;;;;;;;3.92;2.40;;;9.50;79.10;;;;;;5051270;28;20026;-85
2022/01/22 12:48:00;;;;;;;2.40;1.95;;;9.50;79.00;;;;;;5019202;28;20469;-85
2022/01/22 12:50:30;;;;;;;3.33;2.30;;;9.60;79.10;;;;;;5034777;28;20030;-84
2022/01/22 12:53:02;;;;;;;3.67;2.20;;;9.60;79.20;;;;;;5017673;28;20034;-85
2022/01/22 12:55:49;;;;;;;2.40;2.20;;;9.60;79.20;;;;;;5018846;28;20079;-85
2022/01/22 12:58:23;;;;;;;4.15;2.25;;;9.60;79.10;;;;;;5034691;28;20087;-85
2022/01/22 13:00:52;;;;;;;3.27;2.17;;;9.60;79.10;;;;;;5034413;28;20030;-84
2022/01/22 13:03:39;;;;;;;4.05;2.20;;;9.60;79.00;;;;;;5018052;28;20124;-85
2022/01/22 13:06:05;;;;;;;3.90;2.20;;;9.60;79.20;;;;;;5051165;28;20026;-84
2022/01/22 13:09:08;;;;;;;3.10;1.98;;;9.70;79.10;;;;;;4974917;28;20031;-85
2022/01/22 13:11:47;;;;;;;4.07;2.35;;;9.60;79.00;;;;;;5007238;28;20048;-85
2022/01/22 13:14:27;;;;;;;2.72;2.10;;;9.60;79.00;;;;;;5017198;28;20068;-84
2022/01/22 13:16:54;;;;;;;3.00;2.08;;;9.70;79.20;;;;;;5017670;28;20029;-84
2022/01/22 13:19:21;;;;;;;3.40;2.22;;;9.70;79.10;;;;;;5018136;28;20021;-85
2022/01/22 13:22:02;;;;;;;2.75;2.20;;;9.70;79.10;;;;;;5019840;28;20038;-84
2022/01/22 13:24:29;;;;;;;2.55;2.10;;;9.70;79.10;;;;;;5033797;28;20099;-84
2022/01/22 13:27:10;;;;;;;2.40;2.17;;;9.70;79.10;;;;;;5017267;28;20030;-86
2022/01/22 13:29:41;;;;;;;2.78;2.10;;;9.70;79.00;;;;;;5033717;28;20022;-85
2022/01/22 13:32:18;;;;;;;3.95;2.40;;;9.80;79.10;;;;;;5034344;28;20034;-86
2022/01/22 13:47:39;;;;;;;3.10;2.50;;;9.80;79.00;;;;;;5033584;28;20037;-84
2022/01/22 13:48:08;;;;;;;4.72;2.65;;;9.80;79.00;;;;;;5033031;28;20041;-85
2022/01/22 13:50:34;;;;;;;4.47;3.20;;;9.70;78.90;;;;;;5015592;28;20025;-85
2022/01/22 13:53:00;;;;;;;4.43;3.03;;;9.80;79.00;;;;;;5032935;28;20040;-84
2022/01/22 13:55:26;;;;;;;3.88;3.08;;;9.80;79.00;;;;;;5033317;28;20104;-85
2022/01/22 13:57:52;;;;;;;5.05;3.22;;;9.80;79.00;;;;;;5016695;28;20033;-85
2022/01/22 14:00:20;;;;;;;4.47;3.25;;;9.80;79.00;;;;;;5016812;28;20083;-84
2022/01/22 14:05:26;;;;;;;4.70;3.35;;;9.80;79.00;;;;;;5048411;28;20048;-85
2022/01/22 14:08:03;;;;;;;3.97;3.13;;;9.80;78.90;;;;;;5031570;28;20048;-84
2022/01/22 14:10:31;;;;;;;5.60;3.72;;;9.80;79.00;;;;;;5012674;28;20053;-86
2022/01/22 14:13:11;;;;;;;4.63;3.38;;;9.80;78.90;;;;;;4998765;28;20057;-85
2022/01/22 14:15:46;;;;;;;4.72;3.17;;;9.80;78.90;;;;;;4997896;28;20060;-86
2022/01/22 14:18:22;;;;;;;5.03;3.10;;;9.80;78.90;;;;;;5009405;28;20057;-84
2022/01/22 14:21:18;;;;;;;4.18;3.10;;;9.80;78.90;;;;;;5016395;28;20029;-85
2022/01/22 14:23:45;;;;;;;;;;;9.80;78.90;;;;;;5028691;28;20068;-86
2022/01/22 14:26:27;;;;;;;3.95;2.65;;;9.80;78.90;;;;;;5049568;28;20269;-88
2022/01/22 14:29:07;;;;;;;3.45;2.65;;;9.80;78.90;;;;;;5026921;28;20023;-85
2022/01/22 14:31:40;;;;;;;4.50;3.22;;;9.80;78.90;;;;;;5016154;28;20112;-84
2022/01/22 14:34:12;;;;;;;5.10;3.25;;;9.80;79.00;;;;;;5032223;28;20061;-84
2022/01/22 14:36:47;;;;;;;4.68;3.10;;;9.80;79.00;;;;;;5050509;28;20029;-84
2022/01/22 14:45:06;;;;;;;5.40;3.28;;;9.80;79.00;;;;;;5032412;28;20513;-85
2022/01/22 14:47:41;;;;;;;4.20;2.97;;;9.80;78.90;;;;;;5033901;28;20021;-86
2022/01/22 14:50:10;;;;;;;4.88;3.17;;;9.80;79.00;;;;;;5032665;28;20191;-83
2022/01/22 14:52:36;;;;;;;4.47;3.42;;;9.90;79.00;;;;;;5032623;28;20064;-83
2022/01/22 14:55:11;;;;;;;5.10;3.05;;;9.80;79.00;;;;;;5016160;28;20025;-83
2022/01/22 14:57:40;;;;;;;5.72;3.50;;;9.90;79.00;;;;;;5031932;28;20087;-81
2022/01/22 15:00:17;;;;;;;4.45;3.10;;;9.90;79.00;;;;;;5032024;28;20535;-84
2022/01/22 15:02:45;;;;;;;4.65;3.03;;;9.90;79.00;;;;;;5015450;28;20056;-83
2022/01/22 15:05:16;;;;;;;5.35;3.40;;;9.90;78.90;;;;;;5028223;28;20467;-86
2022/01/22 15:07:47;;;;;;;4.68;3.15;;;9.90;79.00;;;;;;5026555;28;20030;-85
2022/01/22 15:10:18;;;;;;;4.65;3.35;;;9.90;78.90;;;;;;5024525;28;20470;-85
2022/01/22 15:12:46;;;;;;;5.47;3.33;;;9.90;79.00;;;;;;5012990;28;20103;-83
2022/01/22 15:15:21;;;;;;;4.30;3.30;;;9.90;78.90;;;;;;5046429;28;20560;-84
2022/01/22 15:18:05;;;;;;;4.95;3.53;;;9.90;78.90;;;;;;5013112;28;20026;-84
2022/01/22 15:20:33;;;;;;;6.25;3.97;;;9.90;78.90;;;;;;5029896;28;20147;-84
2022/01/22 15:23:00;;;;;;;4.55;3.17;;;9.90;78.90;;;;;;5002987;28;20490;-84
2022/01/22 15:25:33;;;;;;;6.60;3.60;;;9.90;78.90;;;;;;5030049;28;20053;-86
2022/01/22 15:27:59;;;;;;;6.38;3.55;;;9.90;79.00;;;;;;5029501;28;20017;-86
2022/01/22 15:30:33;;;;;;;5.55;3.50;;;9.90;78.90;;;;;;4995390;28;20030;-87
2022/01/22 15:33:17;;;;;;;4.88;3.42;;;9.90;78.90;;;;;;5011047;28;20029;-85